CheckWX is a tool to help pilots better visualize weather data.  It is not intended as a substitute for an official pre-flight weather briefing.

21:43:24 UTC

PADE METAR
Deering Airport
Deering, Alaska, USA
Current

50 mins ago

PADE 192053Z AUTO 22009KT 10SM BKN033 07/02 A2966 RMK AO2 SLP043 T00720022 53007 TSNO $
Observed
Sep-19 @ 20:53 UTC
Wind
  • 220° at 9 KTS
Visibility
10 SM
Flight Rules
VFR
Cloud Levels
  • Broken at 3,300' AGL
Temperature
C / 45°F
Dewpoint
C / 36°F
Humidity
71%
Altimeter
29.66" Hg
Pressure
1004.42 hPa
Previous

2 hours ago

PADE 191953Z AUTO 21008KT 10SM OVC030 06/02 A2965 RMK AO2 SLP041 T00560022 TSNO $
Observed
Sep-19 @ 19:53 UTC
Wind
  • 210° at 8 KTS
Visibility
10 SM
Flight Rules
MVFR
Cloud Levels
  • Overcast at 3,000' AGL
Temperature
C / 43°F
Dewpoint
C / 36°F
Humidity
76%
Altimeter
29.65" Hg
Pressure
1004.02 hPa
Previous

3 hours ago

PADE 191853Z AUTO 19008KT 10SM OVC028 03/02 A2964 RMK AO2 SLP038 T00330017 TSNO $
Observed
Sep-19 @ 18:53 UTC
Wind
  • 190° at 8 KTS
Visibility
10 SM
Flight Rules
MVFR
Cloud Levels
  • Overcast at 2,800' AGL
Temperature
C / 37°F
Dewpoint
C / 36°F
Humidity
93%
Altimeter
29.64" Hg
Pressure
1003.72 hPa